Time;durP1;ratioP1;P1;durP2;ratioP2;P2;SDS_P1;SDS_P2;PMS_P1;PMS_P2;Temp;Humidity;BMP_temperature;BMP_pressure;BME280_temperature;BME280_humidity;BME280_pressure;Samples;Min_cycle;Max_cycle;Signal;HPM_P1;HPM_P2
2022/10/04 00:00:49;;;;;;;25.33;11.35;;;;;;;;;;5009839;28;20137;-73
2022/10/04 00:03:23;;;;;;;25.05;11.10;;;;;;;;;;5010430;28;20405;-73
2022/10/04 00:05:51;;;;;;;28.33;11.95;;;;;;;;;;4992746;28;20200;-74
2022/10/04 00:08:17;;;;;;;28.38;12.00;;;;;;;;;;5010362;28;20058;-73
2022/10/04 00:10:43;;;;;;;29.60;12.10;;;;;;;;;;5010161;28;20053;-73
2022/10/04 00:13:15;;;;;;;29.60;11.70;;;;;;;;;;4992543;28;20064;-71
2022/10/04 00:15:41;;;;;;;25.25;11.52;;;;;;;;;;5010122;28;20078;-73
2022/10/04 00:18:10;;;;;;;24.65;11.35;;;;;;;;;;4992753;28;20138;-73
2022/10/04 00:20:52;;;;;;;26.77;11.02;;;;;;;;;;5009866;28;20349;-74
2022/10/04 00:23:24;;;;;;;24.42;11.55;;;;;;;;;;5010015;28;20049;-73
2022/10/04 00:25:51;;;;;;;25.90;11.27;;;;;;;;;;5009747;28;20509;-73
2022/10/04 00:28:20;;;;;;;23.23;10.77;;;;;;;;;;5009530;28;20469;-73
2022/10/04 00:31:05;;;;;;;27.15;11.55;;;;;;;;;;5009660;28;20482;-74
2022/10/04 00:34:00;;;;;;;27.20;11.10;;;;;;;;;;5009914;28;20125;-73
2022/10/04 00:36:29;;;;;;;24.83;11.80;;;;;;;;;;4939403;28;20055;-73
2022/10/04 00:39:04;;;;;;;26.40;12.20;;;;;;;;;;5009985;28;20445;-73
2022/10/04 00:41:54;;;;;;;25.52;11.55;;;;;;;;;;5009470;28;20493;-73
2022/10/04 00:44:41;;;;;;;23.45;11.48;;;;;;;;;;4999162;28;20116;-73
2022/10/04 00:47:18;;;;;;;23.33;11.02;;;;;;;;;;4992073;28;20049;-73
2022/10/04 00:49:46;;;;;;;25.33;10.85;;;;;;;;;;5010029;28;20085;-73
2022/10/04 00:52:14;;;;;;;23.88;11.27;;;;;;;;;;5009962;28;20057;-74
2022/10/04 00:54:43;;;;;;;29.95;11.25;;;;;;;;;;5009468;28;20361;-73
2022/10/04 00:57:29;;;;;;;27.05;11.43;;;;;;;;;;5009563;28;20053;-74
2022/10/04 00:59:57;;;;;;;24.08;11.43;;;;;;;;;;4992320;28;20163;-73
2022/10/04 01:02:38;;;;;;;24.63;11.35;;;;;;;;;;5009604;28;20089;-73
2022/10/04 01:05:09;;;;;;;22.75;11.20;;;;;;;;;;4992216;28;20050;-73
2022/10/04 01:07:36;;;;;;;29.83;11.80;;;;;;;;;;4992039;28;20053;-73
2022/10/04 01:10:23;;;;;;;25.25;11.43;;;;;;;;;;4992013;28;20054;-73
2022/10/04 01:12:51;;;;;;;23.90;11.70;;;;;;;;;;5009438;28;20153;-74
2022/10/04 01:15:32;;;;;;;25.67;12.05;;;;;;;;;;5009163;28;20098;-72
2022/10/04 01:18:06;;;;;;;29.42;12.52;;;;;;;;;;4991760;28;20121;-74
2022/10/04 01:20:35;;;;;;;22.67;12.35;;;;;;;;;;5009473;28;20084;-73
2022/10/04 01:23:02;;;;;;;25.60;11.43;;;;;;;;;;4991756;28;20151;-73
2022/10/04 01:25:58;;;;;;;27.40;13.00;;;;;;;;;;5009216;28;20049;-73
2022/10/04 01:28:24;;;;;;;28.48;12.63;;;;;;;;;;4991986;28;20054;-72
2022/10/04 01:30:50;;;;;;;27.35;13.32;;;;;;;;;;5009043;28;20137;-73
2022/10/04 01:33:18;;;;;;;27.42;13.75;;;;;;;;;;5009232;28;20117;-73
2022/10/04 01:35:44;;;;;;;27.75;13.68;;;;;;;;;;5008978;28;20064;-73
2022/10/04 01:38:11;;;;;;;28.02;13.80;;;;;;;;;;5009187;28;20046;-73
2022/10/04 01:40:50;;;;;;;28.00;13.68;;;;;;;;;;5008982;28;20124;-73
2022/10/04 01:43:19;;;;;;;28.05;14.23;;;;;;;;;;5009175;28;20137;-73
2022/10/04 01:45:48;;;;;;;29.17;13.77;;;;;;;;;;4991197;28;20061;-72
2022/10/04 01:48:16;;;;;;;30.15;14.60;;;;;;;;;;4990879;28;20056;-73
2022/10/04 01:50:50;;;;;;;28.58;14.65;;;;;;;;;;5008860;28;20121;-72
2022/10/04 01:53:16;;;;;;;34.25;14.98;;;;;;;;;;5008965;28;20050;-72
2022/10/04 01:55:45;;;;;;;28.30;15.35;;;;;;;;;;4991404;28;20065;-72
2022/10/04 01:58:16;;;;;;;28.85;14.52;;;;;;;;;;4991069;28;20054;-71
2022/10/04 02:00:45;;;;;;;30.02;14.85;;;;;;;;;;5008857;28;20109;-72
2022/10/04 02:03:16;;;;;;;32.67;15.95;;;;;;;;;;4990970;28;20050;-72
2022/10/04 02:05:53;;;;;;;33.15;14.90;;;;;;;;;;5008688;28;20449;-71
2022/10/04 02:08:23;;;;;;;28.98;15.07;;;;;;;;;;4991187;28;20346;-72
2022/10/04 02:10:49;;;;;;;28.45;15.48;;;;;;;;;;5008829;28;20088;-72
2022/10/04 02:13:17;;;;;;;;;;;;;;;;;;5009296;28;20061;-72
2022/10/04 02:15:44;;;;;;;29.05;15.98;;;;;;;;;;4983424;28;20359;-72
2022/10/04 02:18:20;;;;;;;28.05;14.90;;;;;;;;;;4969894;28;20054;-72
2022/10/04 02:20:48;;;;;;;32.13;15.83;;;;;;;;;;4969996;28;20065;-72
2022/10/04 02:23:16;;;;;;;30.17;15.73;;;;;;;;;;4968694;28;20501;-72
2022/10/04 02:25:42;;;;;;;29.02;15.13;;;;;;;;;;4972916;28;20109;-72
2022/10/04 02:28:12;;;;;;;31.48;15.88;;;;;;;;;;4973434;28;20130;-72
2022/10/04 02:30:39;;;;;;;27.45;16.23;;;;;;;;;;4973445;28;20154;-72
2022/10/04 02:33:06;;;;;;;30.83;15.35;;;;;;;;;;4973050;28;20116;-73
2022/10/04 02:35:44;;;;;;;31.38;16.25;;;;;;;;;;4973158;28;20071;-72
2022/10/04 02:38:24;;;;;;;28.13;16.05;;;;;;;;;;4971756;28;20046;-73
2022/10/04 02:40:56;;;;;;;31.60;16.38;;;;;;;;;;4971744;28;20101;-73
2022/10/04 02:43:26;;;;;;;31.77;16.35;;;;;;;;;;4972783;28;20046;-73
2022/10/04 02:45:57;;;;;;;29.50;16.08;;;;;;;;;;4971233;28;20047;-72
2022/10/04 02:48:44;;;;;;;26.63;15.70;;;;;;;;;;4972822;28;20466;-73
2022/10/04 02:51:28;;;;;;;32.57;16.07;;;;;;;;;;4972974;28;20055;-73
2022/10/04 02:53:57;;;;;;;27.08;15.60;;;;;;;;;;4972509;28;20297;-73
2022/10/04 02:56:24;;;;;;;31.35;15.65;;;;;;;;;;4971297;28;20054;-73
2022/10/04 02:58:51;;;;;;;33.53;15.25;;;;;;;;;;4971399;28;20050;-73
2022/10/04 03:01:25;;;;;;;26.75;15.40;;;;;;;;;;4971174;28;20390;-73
2022/10/04 03:03:54;;;;;;;28.20;16.30;;;;;;;;;;4971198;28;20055;-72
2022/10/04 03:06:21;;;;;;;30.60;16.33;;;;;;;;;;4972360;28;20414;-73
2022/10/04 03:08:57;;;;;;;26.58;16.42;;;;;;;;;;4971047;28;20150;-73
2022/10/04 03:11:26;;;;;;;35.00;16.73;;;;;;;;;;4972411;28;20073;-72
2022/10/04 03:13:54;;;;;;;29.48;16.20;;;;;;;;;;4970958;28;20274;-73
2022/10/04 03:16:20;;;;;;;32.67;15.82;;;;;;;;;;4970476;28;20081;-73
2022/10/04 03:18:47;;;;;;;28.35;15.43;;;;;;;;;;4972366;28;20057;-73
2022/10/04 03:21:15;;;;;;;28.38;15.93;;;;;;;;;;4972509;28;20058;-73
2022/10/04 03:23:42;;;;;;;27.48;14.60;;;;;;;;;;4972294;28;20116;-73
2022/10/04 03:26:27;;;;;;;26.75;14.85;;;;;;;;;;4972234;28;20165;-73
2022/10/04 03:28:54;;;;;;;29.98;15.60;;;;;;;;;;4972357;28;20118;-74
2022/10/04 03:31:20;;;;;;;;;;;;;;;;;;4971037;28;20130;-73
2022/10/04 03:33:46;;;;;;;30.48;15.10;;;;;;;;;;4971328;28;19991;-72
2022/10/04 03:36:15;;;;;;;30.35;16.60;;;;;;;;;;4969768;28;20117;-73
2022/10/04 03:38:41;;;;;;;25.13;15.57;;;;;;;;;;4970335;28;20098;-72
2022/10/04 03:41:09;;;;;;;26.35;15.30;;;;;;;;;;4972052;28;20093;-71
2022/10/04 03:43:37;;;;;;;30.25;15.80;;;;;;;;;;4971963;28;20042;-70
2022/10/04 03:46:04;;;;;;;29.83;15.00;;;;;;;;;;4971766;28;20042;-71
2022/10/04 03:48:30;;;;;;;;;;;;;;;;;;4971227;28;20193;-71
2022/10/04 03:50:56;;;;;;;28.75;15.40;;;;;;;;;;4971379;28;20379;-72
2022/10/04 03:53:22;;;;;;;;;;;;;;;;;;4972163;28;20119;-72
2022/10/04 03:55:48;;;;;;;28.27;15.60;;;;;;;;;;4971828;28;20020;-71
2022/10/04 03:58:16;;;;;;;29.77;15.32;;;;;;;;;;4971803;28;20058;-71
2022/10/04 04:00:44;;;;;;;33.22;15.80;;;;;;;;;;4971711;28;20059;-71
2022/10/04 04:03:15;;;;;;;26.13;16.08;;;;;;;;;;4971463;28;20050;-72
2022/10/04 04:05:49;;;;;;;26.98;15.07;;;;;;;;;;4971499;28;20062;-72
2022/10/04 04:08:35;;;;;;;28.90;15.40;;;;;;;;;;4969779;28;20090;-71
2022/10/04 04:11:03;;;;;;;33.10;16.67;;;;;;;;;;4970433;28;20047;-72
2022/10/04 04:13:41;;;;;;;28.15;14.77;;;;;;;;;;4971411;28;20070;-72
2022/10/04 04:16:09;;;;;;;28.98;14.68;;;;;;;;;;4986038;28;20080;-72
2022/10/04 04:18:36;;;;;;;29.55;15.48;;;;;;;;;;5010216;28;20101;-72
2022/10/04 04:21:05;;;;;;;32.35;15.38;;;;;;;;;;5010142;28;20141;-72
2022/10/04 04:23:38;;;;;;;26.88;15.23;;;;;;;;;;4992143;28;20058;-72
2022/10/04 04:26:18;;;;;;;29.17;14.98;;;;;;;;;;5009854;28;20049;-72
2022/10/04 04:28:47;;;;;;;27.75;15.60;;;;;;;;;;4992404;28;20123;-72
2022/10/04 04:31:43;;;;;;;26.45;15.07;;;;;;;;;;4992390;28;20093;-72
2022/10/04 04:34:16;;;;;;;31.42;15.63;;;;;;;;;;4993975;28;20085;-72
2022/10/04 04:36:46;;;;;;;31.75;15.57;;;;;;;;;;5012373;28;20131;-73
2022/10/04 04:42:06;;;;;;;31.40;16.73;;;;;;;;;;5009702;28;20337;-73
2022/10/04 04:44:32;;;;;;;27.88;15.85;;;;;;;;;;4975971;28;20064;-73
2022/10/04 04:46:59;;;;;;;29.85;16.70;;;;;;;;;;4991079;28;20060;-72
2022/10/04 04:49:26;;;;;;;30.63;15.65;;;;;;;;;;4991897;28;20053;-73
2022/10/04 04:51:53;;;;;;;32.38;16.83;;;;;;;;;;4991465;28;20434;-73
2022/10/04 04:54:22;;;;;;;28.40;16.40;;;;;;;;;;5009829;28;20046;-73
2022/10/04 04:56:50;;;;;;;31.98;16.60;;;;;;;;;;5009645;28;20128;-73
2022/10/04 04:59:17;;;;;;;32.30;17.00;;;;;;;;;;4992179;28;20046;-73
2022/10/04 05:01:45;;;;;;;28.08;16.50;;;;;;;;;;4991753;28;20057;-74
2022/10/04 05:04:13;;;;;;;29.42;16.67;;;;;;;;;;4991670;28;20045;-72
2022/10/04 05:06:44;;;;;;;30.10;17.13;;;;;;;;;;5009694;28;20085;-72
2022/10/04 05:09:22;;;;;;;30.27;16.83;;;;;;;;;;5009571;28;20438;-73
2022/10/04 05:11:50;;;;;;;30.80;17.75;;;;;;;;;;4975890;28;20486;-72
2022/10/04 05:14:18;;;;;;;30.08;17.73;;;;;;;;;;5009696;28;20120;-73
2022/10/04 05:16:48;;;;;;;29.50;18.67;;;;;;;;;;4991634;28;20085;-73
2022/10/04 05:19:20;;;;;;;29.83;17.00;;;;;;;;;;5009226;28;20062;-72
2022/10/04 05:21:47;;;;;;;31.75;17.88;;;;;;;;;;4975776;28;20054;-72
2022/10/04 05:24:25;;;;;;;31.05;17.67;;;;;;;;;;5009438;28;20097;-72
2022/10/04 05:26:53;;;;;;;34.47;18.30;;;;;;;;;;4991269;28;20041;-72
2022/10/04 05:29:21;;;;;;;29.98;18.30;;;;;;;;;;5009282;28;20106;-74
2022/10/04 05:31:50;;;;;;;28.05;17.60;;;;;;;;;;5009201;28;20057;-72
2022/10/04 05:34:26;;;;;;;31.50;19.10;;;;;;;;;;4991268;28;20042;-72
2022/10/04 05:37:11;;;;;;;36.20;19.42;;;;;;;;;;4991183;28;20125;-72
2022/10/04 05:39:43;;;;;;;35.20;19.65;;;;;;;;;;5008993;28;20440;-73
2022/10/04 05:42:12;;;;;;;34.60;22.67;;;;;;;;;;5008941;28;20124;-73
2022/10/04 05:44:46;;;;;;;31.38;19.77;;;;;;;;;;5008270;28;20434;-73
2022/10/04 05:47:13;;;;;;;37.90;19.45;;;;;;;;;;5008353;28;20042;-73
2022/10/04 05:49:45;;;;;;;34.72;19.33;;;;;;;;;;5008836;28;20354;-73
2022/10/04 05:52:16;;;;;;;34.60;21.08;;;;;;;;;;5008541;28;20523;-73
2022/10/04 05:54:43;;;;;;;35.00;22.00;;;;;;;;;;4990684;28;20437;-73
2022/10/04 05:57:32;;;;;;;36.72;20.98;;;;;;;;;;4991443;28;20432;-73
2022/10/04 06:00:07;;;;;;;43.08;29.77;;;;;;;;;;5011566;28;20057;-73
2022/10/04 06:02:40;;;;;;;29.52;20.38;;;;;;;;;;5012339;28;20085;-73
2022/10/04 06:05:15;;;;;;;37.47;20.38;;;;;;;;;;4994774;28;20101;-73
2022/10/04 06:07:58;;;;;;;34.70;21.17;;;;;;;;;;4978094;28;20334;-73
2022/10/04 06:10:36;;;;;;;33.13;21.38;;;;;;;;;;4962628;28;20201;-73
2022/10/04 06:13:21;;;;;;;36.38;20.75;;;;;;;;;;5012097;28;20041;-74
2022/10/04 06:16:03;;;;;;;35.50;20.63;;;;;;;;;;4994450;28;20137;-74
2022/10/04 06:18:35;;;;;;;36.50;20.65;;;;;;;;;;4994370;28;20457;-74
2022/10/04 06:21:20;;;;;;;38.17;24.85;;;;;;;;;;4994639;28;20050;-71
2022/10/04 06:24:06;;;;;;;39.03;23.90;;;;;;;;;;5012246;28;20217;-74
2022/10/04 06:26:42;;;;;;;31.95;20.73;;;;;;;;;;4980895;28;20101;-75
2022/10/04 06:29:19;;;;;;;32.92;21.05;;;;;;;;;;4994649;28;20069;-76
2022/10/04 06:31:50;;;;;;;32.83;19.13;;;;;;;;;;4994216;28;20080;-72
2022/10/04 06:34:32;;;;;;;32.92;20.33;;;;;;;;;;4994599;28;20391;-73
2022/10/04 06:37:17;;;;;;;36.63;20.67;;;;;;;;;;4994584;28;20157;-72
2022/10/04 06:39:45;;;;;;;36.28;22.52;;;;;;;;;;5012333;28;20119;-73
2022/10/04 06:42:21;;;;;;;35.15;21.02;;;;;;;;;;4994367;28;20109;-74
2022/10/04 06:44:47;;;;;;;35.42;21.63;;;;;;;;;;5011667;28;20350;-73
2022/10/04 06:47:31;;;;;;;31.65;20.40;;;;;;;;;;5011955;28;20053;-73
2022/10/04 06:50:00;;;;;;;33.05;21.15;;;;;;;;;;4994404;28;20050;-73
2022/10/04 06:52:26;;;;;;;33.05;21.05;;;;;;;;;;4994029;28;20466;-73
2022/10/04 06:55:02;;;;;;;30.15;20.13;;;;;;;;;;5011731;28;20446;-73
2022/10/04 06:57:35;;;;;;;37.73;21.80;;;;;;;;;;4993894;28;20129;-75
2022/10/04 07:00:05;;;;;;;32.33;21.17;;;;;;;;;;4994105;28;20430;-75
2022/10/04 07:02:35;;;;;;;36.15;20.42;;;;;;;;;;4977715;28;20441;-73
2022/10/04 07:05:17;;;;;;;33.20;21.27;;;;;;;;;;5011730;28;20507;-72
2022/10/04 07:07:46;;;;;;;32.90;20.60;;;;;;;;;;5011159;28;20050;-73
2022/10/04 07:10:21;;;;;;;33.53;20.60;;;;;;;;;;4993206;28;20465;-72
2022/10/04 07:13:09;;;;;;;33.08;21.23;;;;;;;;;;5011850;28;20056;-76
2022/10/04 07:15:46;;;;;;;33.17;20.40;;;;;;;;;;4998165;28;20137;-73
2022/10/04 07:18:25;;;;;;;29.88;20.20;;;;;;;;;;5011297;28;20061;-74
2022/10/04 07:20:58;;;;;;;31.75;20.13;;;;;;;;;;5011461;28;20049;-74
2022/10/04 07:23:29;;;;;;;37.15;20.23;;;;;;;;;;5011048;28;20038;-75
2022/10/04 07:26:00;;;;;;;35.88;20.02;;;;;;;;;;5011101;28;20042;-75
2022/10/04 07:31:16;;;;;;;32.40;20.27;;;;;;;;;;5010728;28;20065;-73
2022/10/04 07:33:49;;;;;;;39.47;20.67;;;;;;;;;;5011104;28;20203;-82
2022/10/04 07:36:18;;;;;;;32.60;20.73;;;;;;;;;;5010841;28;20042;-77
2022/10/04 07:38:53;;;;;;;31.23;20.20;;;;;;;;;;5010931;28;20042;-82
2022/10/04 07:41:36;;;;;;;42.13;27.25;;;;;;;;;;5010696;28;20111;-84
2022/10/04 07:44:14;;;;;;;34.67;20.38;;;;;;;;;;5010624;28;20493;-75
2022/10/04 07:46:57;;;;;;;34.72;21.05;;;;;;;;;;5010937;28;20049;-78
2022/10/04 07:49:25;;;;;;;32.25;19.67;;;;;;;;;;5010977;28;20046;-80
2022/10/04 07:52:10;;;;;;;29.73;18.27;;;;;;;;;;5010922;28;20054;-79
2022/10/04 07:54:38;;;;;;;28.52;18.85;;;;;;;;;;5010995;28;20442;-85
2022/10/04 07:57:12;;;;;;;35.17;19.08;;;;;;;;;;5018395;28;20045;-83
2022/10/04 07:59:56;;;;;;;29.77;18.85;;;;;;;;;;4997509;28;20058;-78
2022/10/04 08:02:25;;;;;;;31.58;18.70;;;;;;;;;;4993169;28;20223;-77
2022/10/04 08:05:05;;;;;;;32.13;18.98;;;;;;;;;;4992821;28;20434;-76
2022/10/04 08:07:48;;;;;;;32.40;19.60;;;;;;;;;;5010446;28;20164;-78
2022/10/04 08:10:21;;;;;;;26.30;18.92;;;;;;;;;;4992649;28;20169;-78
2022/10/04 08:12:59;;;;;;;30.75;20.00;;;;;;;;;;5010726;28;20050;-86
2022/10/04 08:15:34;;;;;;;36.42;20.00;;;;;;;;;;4992849;28;20457;-75
2022/10/04 08:18:00;;;;;;;33.28;19.38;;;;;;;;;;5010565;28;20081;-78
2022/10/04 08:20:39;;;;;;;31.67;20.73;;;;;;;;;;5010196;28;20347;-79
2022/10/04 08:23:23;;;;;;;32.70;19.38;;;;;;;;;;4992144;28;20504;-81
2022/10/04 08:26:08;;;;;;;32.92;20.42;;;;;;;;;;4993605;28;20066;-82
2022/10/04 08:31:33;;;;;;;30.67;19.42;;;;;;;;;;5010144;28;20049;-79
2022/10/04 08:34:11;;;;;;;36.40;20.48;;;;;;;;;;4992045;28;20105;-84
2022/10/04 08:36:37;;;;;;;30.33;19.40;;;;;;;;;;4992169;28;20061;-74
2022/10/04 08:39:06;;;;;;;31.67;19.40;;;;;;;;;;4992485;28;20545;-77
2022/10/04 08:41:44;;;;;;;30.70;18.85;;;;;;;;;;4992697;28;20192;-80
2022/10/04 08:44:22;;;;;;;31.48;19.25;;;;;;;;;;5009922;28;20150;-76
2022/10/04 08:46:51;;;;;;;28.60;18.10;;;;;;;;;;5009418;28;20042;-72
2022/10/04 08:49:26;;;;;;;26.77;17.70;;;;;;;;;;5009035;28;20413;-74
2022/10/04 08:51:52;;;;;;;32.88;19.02;;;;;;;;;;4991870;28;20133;-73
2022/10/04 08:54:24;;;;;;;28.27;18.50;;;;;;;;;;5009676;28;20437;-74
2022/10/04 08:57:03;;;;;;;32.22;17.17;;;;;;;;;;4991792;28;20061;-72
2022/10/04 08:59:48;;;;;;;28.08;17.48;;;;;;;;;;4975797;28;20434;-69
2022/10/04 09:02:47;;;;;;;27.45;15.57;;;;;;;;;;4991864;28;20049;-69
2022/10/04 09:05:16;;;;;;;27.77;16.33;;;;;;;;;;4949129;28;20058;-75
2022/10/04 09:08:03;;;;;;;25.90;14.82;;;;;;;;;;4991633;28;20046;-79
2022/10/04 09:10:49;;;;;;;25.98;14.52;;;;;;;;;;5009372;28;20065;-70
2022/10/04 09:13:30;;;;;;;25.02;15.43;;;;;;;;;;5009278;28;20076;-67
2022/10/04 09:16:16;;;;;;;25.25;13.77;;;;;;;;;;4990724;28;20054;-68
2022/10/04 09:18:52;;;;;;;25.48;12.95;;;;;;;;;;5008999;28;20466;-70
2022/10/04 09:21:38;;;;;;;22.73;13.35;;;;;;;;;;5008728;28;20096;-73
2022/10/04 09:24:20;;;;;;;26.48;13.90;;;;;;;;;;5008908;28;20111;-75
2022/10/04 09:27:00;;;;;;;22.30;12.77;;;;;;;;;;4991151;28;20038;-80
2022/10/04 09:29:46;;;;;;;23.15;11.57;;;;;;;;;;4991528;28;20066;-84
2022/10/04 09:32:15;;;;;;;23.77;11.55;;;;;;;;;;4991342;28;20132;-76
2022/10/04 09:35:05;;;;;;;22.08;10.27;;;;;;;;;;4994085;28;20045;-68
2022/10/04 09:37:50;;;;;;;22.48;9.93;;;;;;;;;;5012979;28;20120;-73
2022/10/04 09:40:19;;;;;;;17.67;8.98;;;;;;;;;;5012761;28;20460;-70
2022/10/04 09:42:50;;;;;;;22.25;9.93;;;;;;;;;;5012883;28;20141;-74
2022/10/04 09:45:26;;;;;;;19.73;10.55;;;;;;;;;;5012610;28;20446;-75
2022/10/04 09:48:04;;;;;;;22.83;10.45;;;;;;;;;;5013490;28;20456;-72
2022/10/04 09:50:34;;;;;;;22.80;10.63;;;;;;;;;;4995147;28;20058;-73
2022/10/04 09:53:19;;;;;;;20.75;9.90;;;;;;;;;;4979380;28;20540;-78
2022/10/04 09:55:55;;;;;;;22.38;11.07;;;;;;;;;;4994833;28;20096;-70
2022/10/04 09:58:45;;;;;;;19.42;8.93;;;;;;;;;;4994322;28;20050;-68
2022/10/04 10:01:19;;;;;;;18.88;8.65;;;;;;;;;;5012606;28;20070;-68
2022/10/04 10:04:06;;;;;;;18.08;8.32;;;;;;;;;;4994696;28;20050;-67
2022/10/04 10:06:50;;;;;;;21.15;8.30;;;;;;;;;;5011662;28;20460;-69
2022/10/04 10:15:46;;;;;;;20.42;10.77;;;;;;;;;;5012214;28;20140;-70
2022/10/04 10:18:18;;;;;;;19.23;9.63;;;;;;;;;;4926204;28;20160;-74
2022/10/04 10:20:50;;;;;;;20.38;10.38;;;;;;;;;;5011540;28;20046;-69
2022/10/04 10:23:29;;;;;;;18.55;10.05;;;;;;;;;;4994230;28;20133;-69
2022/10/04 10:26:21;;;;;;;22.52;10.32;;;;;;;;;;4994101;28;20422;-66
2022/10/04 10:29:06;;;;;;;23.15;10.20;;;;;;;;;;5012113;28;20061;-67
2022/10/04 10:32:01;;;;;;;17.13;9.57;;;;;;;;;;5011916;28;20049;-69
2022/10/04 10:34:51;;;;;;;22.10;9.30;;;;;;;;;;4994428;28;20393;-72
2022/10/04 10:37:23;;;;;;;20.58;9.68;;;;;;;;;;4994034;28;20066;-69
2022/10/04 10:39:59;;;;;;;18.75;9.35;;;;;;;;;;4993814;28;20081;-68
2022/10/04 10:42:31;;;;;;;20.10;8.63;;;;;;;;;;4994220;28;20081;-73
2022/10/04 10:45:03;;;;;;;16.85;8.15;;;;;;;;;;4994383;28;20153;-72
2022/10/04 10:47:38;;;;;;;17.35;8.23;;;;;;;;;;4993685;28;20069;-72
2022/10/04 10:50:07;;;;;;;19.40;7.57;;;;;;;;;;5011727;28;20141;-70
2022/10/04 10:52:53;;;;;;;17.10;6.97;;;;;;;;;;5011541;28;20576;-79
2022/10/04 10:55:38;;;;;;;15.00;6.28;;;;;;;;;;5011715;28;20058;-73
2022/10/04 10:58:07;;;;;;;16.15;6.97;;;;;;;;;;4993698;28;20061;-74
2022/10/04 11:00:39;;;;;;;17.15;7.55;;;;;;;;;;5011492;28;20057;-66
2022/10/04 11:03:24;;;;;;;16.00;6.85;;;;;;;;;;5010990;28;20045;-68
2022/10/04 11:06:09;;;;;;;19.20;6.78;;;;;;;;;;4993526;28;20081;-71
2022/10/04 11:08:44;;;;;;;15.23;7.10;;;;;;;;;;5011173;28;20054;-67
2022/10/04 11:11:16;;;;;;;15.05;7.10;;;;;;;;;;5011400;28;20069;-67
2022/10/04 11:14:01;;;;;;;14.60;6.47;;;;;;;;;;5011509;28;20077;-68
2022/10/04 11:16:43;;;;;;;14.45;6.47;;;;;;;;;;5010618;28;20137;-67
2022/10/04 11:19:28;;;;;;;17.33;7.03;;;;;;;;;;5011836;28;20053;-66
2022/10/04 11:22:09;;;;;;;17.60;6.70;;;;;;;;;;5011116;28;20049;-68
2022/10/04 11:24:54;;;;;;;16.73;6.95;;;;;;;;;;5010024;28;20115;-72
2022/10/04 11:27:23;;;;;;;17.77;6.60;;;;;;;;;;5010767;28;20323;-66
2022/10/04 11:30:02;;;;;;;15.80;6.95;;;;;;;;;;5011252;28;20053;-72
2022/10/04 11:32:47;;;;;;;15.32;7.05;;;;;;;;;;5010954;28;20141;-71
2022/10/04 11:35:35;;;;;;;17.48;6.78;;;;;;;;;;5011036;28;20061;-68
2022/10/04 11:38:21;;;;;;;15.40;6.57;;;;;;;;;;5010453;28;20060;-69
2022/10/04 11:41:06;;;;;;;15.10;7.40;;;;;;;;;;5010412;28;20196;-71
2022/10/04 11:43:32;;;;;;;17.48;7.05;;;;;;;;;;5010369;28;20045;-70
2022/10/04 11:46:13;;;;;;;13.98;6.72;;;;;;;;;;4992750;28;20145;-70
2022/10/04 11:48:39;;;;;;;14.15;7.03;;;;;;;;;;4992381;28;20042;-69
2022/10/04 11:51:08;;;;;;;17.08;6.45;;;;;;;;;;5010324;28;20045;-71
2022/10/04 11:53:34;;;;;;;17.27;6.40;;;;;;;;;;5010261;28;20210;-70
2022/10/04 11:56:18;;;;;;;14.77;6.57;;;;;;;;;;4975995;28;20050;-69
2022/10/04 11:59:02;;;;;;;18.33;6.85;;;;;;;;;;5009894;28;20370;-77
2022/10/04 12:01:39;;;;;;;16.20;6.45;;;;;;;;;;4992536;28;20081;-76
2022/10/04 12:04:06;;;;;;;;;;;;;;;;;;4992658;28;20109;-74
2022/10/04 12:06:51;;;;;;;14.38;6.30;;;;;;;;;;4992119;28;20027;-75
2022/10/04 12:09:22;;;;;;;15.07;6.03;;;;;;;;;;4992080;28;20050;-69
2022/10/04 12:14:56;;;;;;;13.77;6.20;;;;;;;;;;5009049;28;20060;-69
2022/10/04 12:17:32;;;;;;;17.25;6.50;;;;;;;;;;4974695;28;20457;-71
2022/10/04 12:20:16;;;;;;;16.55;6.65;;;;;;;;;;5008520;28;20438;-75
2022/10/04 12:22:55;;;;;;;19.05;7.13;;;;;;;;;;4991668;28;20064;-74
2022/10/04 12:25:41;;;;;;;17.10;7.25;;;;;;;;;;5009748;28;20134;-76
2022/10/04 12:28:26;;;;;;;16.42;6.65;;;;;;;;;;4991999;28;20557;-76
2022/10/04 12:31:02;;;;;;;19.25;8.07;;;;;;;;;;5009610;28;20085;-81
2022/10/04 12:33:36;;;;;;;14.02;6.55;;;;;;;;;;5009792;28;20046;-68
2022/10/04 12:36:22;;;;;;;17.42;7.28;;;;;;;;;;4991698;28;20049;-77
2022/10/04 12:38:54;;;;;;;13.30;6.07;;;;;;;;;;5009402;28;20058;-68
2022/10/04 12:41:27;;;;;;;16.17;6.85;;;;;;;;;;4991980;28;20058;-69
2022/10/04 12:44:10;;;;;;;15.73;6.70;;;;;;;;;;5009206;28;20124;-70
2022/10/04 12:46:39;;;;;;;17.38;7.07;;;;;;;;;;5009379;28;20053;-75
2022/10/04 12:49:05;;;;;;;23.33;7.65;;;;;;;;;;4991217;28;20069;-72
2022/10/04 12:51:40;;;;;;;14.10;6.90;;;;;;;;;;4974893;28;20152;-71
2022/10/04 12:54:21;;;;;;;17.05;6.57;;;;;;;;;;5009311;28;20096;-70
2022/10/04 12:57:07;;;;;;;15.05;6.30;;;;;;;;;;5008770;28;20567;-68
2022/10/04 12:59:51;;;;;;;14.50;6.60;;;;;;;;;;5008684;28;20045;-70
2022/10/04 13:02:26;;;;;;;14.68;6.60;;;;;;;;;;5008718;28;20126;-70
2022/10/04 13:05:01;;;;;;;16.67;6.68;;;;;;;;;;4990814;28;20159;-74
2022/10/04 13:07:34;;;;;;;16.60;6.45;;;;;;;;;;5008727;28;20397;-71
2022/10/04 13:10:22;;;;;;;14.50;6.45;;;;;;;;;;4974849;28;20076;-69
2022/10/04 13:13:09;;;;;;;14.70;6.20;;;;;;;;;;5008188;28;20068;-70
2022/10/04 13:15:44;;;;;;;13.57;5.40;;;;;;;;;;5009025;28;20073;-80
2022/10/04 13:18:29;;;;;;;14.00;6.20;;;;;;;;;;4990652;28;20354;-67
2022/10/04 13:21:03;;;;;;;16.13;5.88;;;;;;;;;;4991100;28;20108;-76
2022/10/04 13:23:35;;;;;;;20.70;6.50;;;;;;;;;;5007965;28;20093;-75
2022/10/04 13:26:01;;;;;;;12.25;5.80;;;;;;;;;;4975399;28;20081;-72
2022/10/04 13:28:30;;;;;;;15.10;6.05;;;;;;;;;;4975215;28;20119;-71
2022/10/04 13:31:03;;;;;;;14.95;5.78;;;;;;;;;;4991170;28;20117;-72
2022/10/04 13:33:47;;;;;;;15.98;7.50;;;;;;;;;;5008862;28;20128;-70
2022/10/04 13:36:25;;;;;;;20.65;7.88;;;;;;;;;;5008998;28;20064;-70
2022/10/04 13:38:51;;;;;;;15.85;6.10;;;;;;;;;;5008695;28;20502;-72
2022/10/04 13:41:19;;;;;;;13.25;5.45;;;;;;;;;;5008890;28;20419;-82
2022/10/04 13:44:01;;;;;;;12.65;6.00;;;;;;;;;;4991164;28;20339;-72
2022/10/04 13:46:31;;;;;;;15.98;5.85;;;;;;;;;;4992096;28;20045;-74
2022/10/04 13:49:06;;;;;;;15.27;5.68;;;;;;;;;;4991248;28;20188;-72
2022/10/04 13:56:35;;;;;;;11.73;5.53;;;;;;;;;;5009085;28;20125;-71
2022/10/04 13:57:38;;;;;;;15.20;5.25;;;;;;;;;;4991747;28;20081;-73
2022/10/04 14:00:06;;;;;;;14.95;5.90;;;;;;;;;;4991613;28;20065;-72
2022/10/04 14:02:56;;;;;;;15.25;5.93;;;;;;;;;;4991511;28;20053;-71
2022/10/04 14:05:22;;;;;;;14.55;6.38;;;;;;;;;;4964136;28;20054;-71
2022/10/04 14:07:57;;;;;;;17.25;5.68;;;;;;;;;;4991162;28;20054;-72
2022/10/04 14:10:36;;;;;;;12.10;5.68;;;;;;;;;;4991677;28;20144;-72
2022/10/04 14:13:04;;;;;;;15.32;6.95;;;;;;;;;;4974492;28;20130;-71
2022/10/04 14:15:40;;;;;;;14.05;5.97;;;;;;;;;;5008523;28;20073;-74
2022/10/04 14:18:12;;;;;;;14.93;6.88;;;;;;;;;;5008649;28;20073;-72
2022/10/04 14:21:01;;;;;;;14.65;5.95;;;;;;;;;;5010886;28;20092;-72
2022/10/04 14:23:33;;;;;;;14.85;6.45;;;;;;;;;;5012596;28;20120;-73
2022/10/04 14:26:18;;;;;;;13.77;6.10;;;;;;;;;;4994333;28;20108;-70
2022/10/04 14:28:47;;;;;;;14.70;5.90;;;;;;;;;;4994829;28;20430;-71
2022/10/04 14:31:22;;;;;;;15.82;5.80;;;;;;;;;;5011964;28;20053;-71
2022/10/04 14:34:07;;;;;;;13.20;5.75;;;;;;;;;;4994458;28;20054;-71
2022/10/04 14:36:59;;;;;;;14.85;5.97;;;;;;;;;;5011480;28;20455;-68
2022/10/04 14:39:33;;;;;;;13.18;5.55;;;;;;;;;;4964400;28;20121;-70
2022/10/04 14:41:59;;;;;;;14.38;5.72;;;;;;;;;;4993738;28;20050;-72
2022/10/04 14:44:25;;;;;;;15.85;6.38;;;;;;;;;;4994230;28;20068;-83
2022/10/04 14:47:00;;;;;;;14.02;6.10;;;;;;;;;;5011542;28;20049;-71
2022/10/04 14:49:26;;;;;;;15.73;6.10;;;;;;;;;;5011687;28;20050;-76
2022/10/04 14:51:52;;;;;;;;;;;;;;;;;;4994371;28;20054;-74
2022/10/04 14:54:22;;;;;;;14.27;6.20;;;;;;;;;;5011433;28;20391;-75
2022/10/04 14:57:00;;;;;;;13.38;6.07;;;;;;;;;;4994301;28;20062;-74
2022/10/04 14:59:29;;;;;;;15.00;5.93;;;;;;;;;;4978085;28;20068;-70
2022/10/04 15:02:14;;;;;;;14.70;5.60;;;;;;;;;;5011695;28;20469;-71
2022/10/04 15:04:58;;;;;;;15.38;5.30;;;;;;;;;;5011936;28;20053;-74
2022/10/04 15:07:38;;;;;;;12.63;5.07;;;;;;;;;;4993681;28;20110;-73
2022/10/04 15:10:12;;;;;;;14.40;5.07;;;;;;;;;;4994138;28;20145;-72
2022/10/04 15:12:42;;;;;;;15.32;5.50;;;;;;;;;;4993691;28;20057;-72
2022/10/04 15:15:13;;;;;;;12.80;5.25;;;;;;;;;;4993640;28;20050;-69
2022/10/04 15:17:43;;;;;;;12.23;4.75;;;;;;;;;;4993701;28;20104;-72
2022/10/04 15:20:21;;;;;;;12.45;4.68;;;;;;;;;;5011408;28;20077;-75
2022/10/04 15:23:07;;;;;;;12.98;5.28;;;;;;;;;;4994172;28;20128;-71
2022/10/04 15:25:47;;;;;;;11.68;4.97;;;;;;;;;;4993665;28;20050;-73
2022/10/04 15:28:32;;;;;;;13.80;5.22;;;;;;;;;;4992993;28;20080;-73